createdAt,value
2019-02-27T00:00:44.827Z,1.60
2019-02-27T00:03:13.497Z,1.20
2019-02-27T00:05:42.409Z,1.00
2019-02-27T00:08:10.991Z,1.30
2019-02-27T00:10:39.913Z,0.90
2019-02-27T00:13:08.409Z,1.13
2019-02-27T00:15:37.975Z,1.20
2019-02-27T00:18:07.035Z,2.10
2019-02-27T00:20:37.199Z,1.33
2019-02-27T00:23:05.611Z,1.20
2019-02-27T00:25:36.132Z,3.20
2019-02-27T00:28:04.196Z,2.77
2019-02-27T00:30:32.613Z,2.10
2019-02-27T00:33:01.036Z,1.60
2019-02-27T00:35:29.559Z,1.97
2019-02-27T00:37:58.048Z,1.80
2019-02-27T00:40:26.481Z,1.90
2019-02-27T00:42:55.088Z,2.07
2019-02-27T00:45:23.494Z,1.63
2019-02-27T00:47:53.263Z,1.20
2019-02-27T00:50:22.223Z,1.50
2019-02-27T00:52:51.091Z,2.23
2019-02-27T00:55:20.162Z,1.63
2019-02-27T00:57:48.585Z,1.33
2019-02-27T01:00:18.026Z,1.90
2019-02-27T01:02:46.445Z,1.60
2019-02-27T01:05:15.096Z,1.77
2019-02-27T01:07:43.583Z,1.70
2019-02-27T01:10:12.998Z,1.30
2019-02-27T01:12:41.497Z,1.63
2019-02-27T01:15:11.474Z,1.40
2019-02-27T01:17:39.945Z,1.60
2019-02-27T01:20:13.506Z,1.30
2019-02-27T01:22:41.905Z,1.70
2019-02-27T01:25:10.495Z,1.20
2019-02-27T01:27:38.905Z,1.43
2019-02-27T01:30:15.501Z,1.10
2019-02-27T01:32:43.938Z,1.93
2019-02-27T01:35:17.807Z,1.50
2019-02-27T01:37:44.358Z,1.60
2019-02-27T01:40:17.402Z,1.83
2019-02-27T01:42:44.591Z,1.47
2019-02-27T01:45:15.327Z,1.60
2019-02-27T01:47:43.749Z,1.60
2019-02-27T01:50:34.083Z,1.80
2019-02-27T01:53:07.087Z,1.70
2019-02-27T01:55:32.728Z,1.47
2019-02-27T01:58:01.248Z,1.67
2019-02-27T02:00:29.720Z,1.70
2019-02-27T02:02:58.229Z,1.10
2019-02-27T02:05:27.435Z,0.90
2019-02-27T02:07:56.007Z,1.00
2019-02-27T02:10:28.114Z,1.40
2019-02-27T02:12:58.126Z,1.20
2019-02-27T02:15:35.438Z,1.50
2019-02-27T02:18:23.313Z,1.33
2019-02-27T02:21:00.894Z,1.40
2019-02-27T02:23:47.938Z,1.10
2019-02-27T02:26:32.112Z,1.33
2019-02-27T02:29:17.934Z,1.30
2019-02-27T02:32:01.440Z,1.37
2019-02-27T02:34:48.024Z,1.23
2019-02-27T02:37:37.771Z,1.47
2019-02-27T02:40:07.459Z,1.03
2019-02-27T02:43:10.431Z,0.90
2019-02-27T02:46:16.527Z,1.20
2019-02-27T02:48:56.775Z,0.90
2019-02-27T02:51:51.992Z,0.90
2019-02-27T02:54:39.589Z,1.03
2019-02-27T02:57:22.853Z,1.07
2019-02-27T02:59:59.907Z,0.90
2019-02-27T03:02:36.211Z,0.80
2019-02-27T03:05:24.455Z,0.90
2019-02-27T03:08:02.309Z,1.10
2019-02-27T03:10:42.918Z,0.80
2019-02-27T03:13:22.089Z,1.00
2019-02-27T03:16:04.172Z,1.00
2019-02-27T03:18:44.195Z,1.00
2019-02-27T03:21:27.301Z,0.63
2019-02-27T03:24:12.367Z,0.83
2019-02-27T03:26:43.863Z,0.87
2019-02-27T03:29:27.337Z,1.43
2019-02-27T03:32:07.578Z,1.50
2019-02-27T03:34:48.249Z,1.40
2019-02-27T03:37:17.810Z,0.80
2019-02-27T03:39:57.937Z,0.67
2019-02-27T03:42:50.026Z,0.60
2019-02-27T03:45:30.707Z,1.00
2019-02-27T03:48:00.613Z,0.63
2019-02-27T03:50:34.814Z,0.60
2019-02-27T03:53:20.894Z,1.90
2019-02-27T03:56:08.748Z,0.70
2019-02-27T03:59:05.652Z,0.60
2019-02-27T04:01:41.528Z,0.80
2019-02-27T04:04:29.381Z,1.00
2019-02-27T04:07:14.879Z,0.87
2019-02-27T04:09:43.295Z,0.83
2019-02-27T04:12:16.101Z,0.80
2019-02-27T04:14:42.300Z,0.80
2019-02-27T04:17:10.778Z,0.60
2019-02-27T04:19:40.368Z,0.60
2019-02-27T04:22:08.997Z,0.80
2019-02-27T04:24:37.424Z,0.50
2019-02-27T04:27:05.839Z,0.77
2019-02-27T04:29:34.273Z,0.60
2019-02-27T04:32:02.681Z,0.60
2019-02-27T04:34:33.294Z,0.50
2019-02-27T04:37:01.241Z,0.50
2019-02-27T04:39:29.682Z,0.60
2019-02-27T04:41:58.102Z,0.40
2019-02-27T04:44:26.525Z,0.87
2019-02-27T04:46:55.562Z,0.70
2019-02-27T04:49:24.047Z,0.90
2019-02-27T04:51:52.461Z,0.70
2019-02-27T04:54:20.887Z,0.60
2019-02-27T04:56:49.320Z,0.90
2019-02-27T04:59:18.600Z,0.60
2019-02-27T05:01:47.738Z,0.50
2019-02-27T05:04:16.151Z,0.70
2019-02-27T05:06:46.883Z,0.40
2019-02-27T05:09:14.713Z,0.50
2019-02-27T05:11:47.601Z,0.50
2019-02-27T05:14:13.283Z,0.50
2019-02-27T05:16:41.703Z,0.50
2019-02-27T05:19:10.135Z,0.70
2019-02-27T05:21:38.569Z,0.90
2019-02-27T05:24:07.749Z,0.53
2019-02-27T05:26:37.070Z,1.40
2019-02-27T05:29:05.666Z,0.70
2019-02-27T05:31:34.087Z,0.60
2019-02-27T05:34:02.502Z,0.70
2019-02-27T05:36:31.637Z,1.00
2019-02-27T05:39:00.819Z,0.80
2019-02-27T05:41:32.962Z,0.80
2019-02-27T05:43:59.400Z,0.90
2019-02-27T05:46:27.798Z,1.20
2019-02-27T05:48:56.213Z,0.67
2019-02-27T05:51:24.647Z,1.17
2019-02-27T05:53:53.080Z,0.80
2019-02-27T05:56:21.745Z,0.50
2019-02-27T05:58:50.153Z,0.73
2019-02-27T06:01:18.577Z,0.70
2019-02-27T06:03:49.402Z,0.90
2019-02-27T06:06:17.142Z,1.07
2019-02-27T06:08:45.565Z,0.80
2019-02-27T06:11:13.991Z,0.80
2019-02-27T06:13:42.401Z,0.80
2019-02-27T06:16:10.824Z,0.70
2019-02-27T06:18:39.241Z,0.90
2019-02-27T06:21:07.700Z,0.80
2019-02-27T06:23:37.834Z,0.60
2019-02-27T06:26:06.261Z,0.80
2019-02-27T06:28:34.690Z,0.60
2019-02-27T06:31:03.218Z,0.90
2019-02-27T06:33:31.661Z,0.87
2019-02-27T06:36:00.085Z,0.90
2019-02-27T06:38:28.510Z,0.73
2019-02-27T06:40:56.929Z,0.60
2019-02-27T06:43:27.389Z,0.83
2019-02-27T06:45:55.561Z,0.70
2019-02-27T06:48:24.070Z,0.90
2019-02-27T06:50:52.494Z,1.07
2019-02-27T06:53:20.933Z,0.83
2019-02-27T06:55:49.414Z,0.70
2019-02-27T06:58:17.846Z,1.10
2019-02-27T07:00:46.272Z,1.23
2019-02-27T07:03:14.760Z,0.90
2019-02-27T07:05:45.582Z,0.90
2019-02-27T07:08:13.314Z,2.20
2019-02-27T07:10:41.740Z,1.10
2019-02-27T07:13:10.165Z,0.80
2019-02-27T07:15:38.601Z,1.00
2019-02-27T07:18:07.015Z,0.90
2019-02-27T07:20:35.427Z,0.90
2019-02-27T07:23:03.841Z,0.77
2019-02-27T07:25:32.273Z,0.80
2019-02-27T07:28:00.771Z,1.03
2019-02-27T07:30:29.202Z,0.80
2019-02-27T07:32:57.634Z,0.70
2019-02-27T07:35:29.102Z,2.00
2019-02-27T07:37:56.214Z,0.60
2019-02-27T07:40:24.667Z,0.80
2019-02-27T07:42:53.057Z,0.90
2019-02-27T07:45:22.870Z,0.83
2019-02-27T07:47:52.291Z,1.13
2019-02-27T07:50:22.302Z,0.70
2019-02-27T07:52:52.152Z,0.90
2019-02-27T07:55:23.032Z,1.30
2019-02-27T07:57:50.920Z,1.00
2019-02-27T08:00:22.817Z,0.63
2019-02-27T08:02:51.319Z,0.90
2019-02-27T08:05:19.837Z,1.40
2019-02-27T08:07:49.140Z,1.00
2019-02-27T08:10:23.145Z,1.10
2019-02-27T08:12:55.536Z,1.67
2019-02-27T08:15:22.061Z,1.00
2019-02-27T08:17:50.573Z,0.90
2019-02-27T08:20:21.061Z,1.10
2019-02-27T08:22:49.698Z,0.70
2019-02-27T08:25:18.901Z,1.73
2019-02-27T08:27:47.423Z,0.93
2019-02-27T08:30:23.175Z,1.30
2019-02-27T08:32:51.640Z,1.63
2019-02-27T08:35:20.126Z,0.93
2019-02-27T08:37:48.586Z,0.80
2019-02-27T08:40:17.098Z,1.33
2019-02-27T08:42:45.577Z,1.60
2019-02-27T08:45:20.188Z,2.07
2019-02-27T08:47:48.065Z,1.70
2019-02-27T08:50:21.023Z,1.20
2019-02-27T08:52:51.558Z,2.00
2019-02-27T08:55:23.114Z,1.60
2019-02-27T08:57:55.580Z,1.80
2019-02-27T09:00:23.804Z,1.90
2019-02-27T09:02:52.310Z,1.60
2019-02-27T09:05:21.083Z,1.40
2019-02-27T09:07:49.642Z,2.17
2019-02-27T09:10:23.196Z,1.10
2019-02-27T09:12:51.817Z,1.33
2019-02-27T09:15:20.468Z,1.30
2019-02-27T09:17:48.960Z,2.20
2019-02-27T09:20:20.568Z,1.17
2019-02-27T09:22:49.289Z,1.07
2019-02-27T09:25:17.802Z,2.10
2019-02-27T09:27:46.274Z,1.70
2019-02-27T09:30:22.165Z,1.27
2019-02-27T09:32:50.605Z,1.80
2019-02-27T09:35:19.043Z,1.10
2019-02-27T09:37:48.378Z,2.00
2019-02-27T09:40:25.615Z,0.70
2019-02-27T09:42:54.203Z,1.30
2019-02-27T09:45:30.086Z,1.10
2019-02-27T09:47:59.899Z,0.90
2019-02-27T09:50:31.891Z,1.07
2019-02-27T09:53:01.152Z,1.17
2019-02-27T09:55:30.740Z,0.80
2019-02-27T09:57:59.356Z,0.83
2019-02-27T10:00:59.367Z,0.60
2019-02-27T10:03:24.751Z,0.70
2019-02-27T10:05:53.249Z,0.70
2019-02-27T10:08:21.747Z,0.80
2019-02-27T10:10:50.202Z,0.67
2019-02-27T10:13:18.653Z,0.90
2019-02-27T10:15:47.117Z,0.60
2019-02-27T10:18:18.381Z,0.63
2019-02-27T10:20:45.731Z,0.60
2019-02-27T10:23:14.173Z,0.50
2019-02-27T10:25:43.476Z,0.50
2019-02-27T10:28:12.586Z,0.70
2019-02-27T10:30:41.316Z,0.70
2019-02-27T10:33:11.202Z,0.57
2019-02-27T10:35:39.941Z,0.60
2019-02-27T10:38:08.430Z,0.63
2019-02-27T10:40:36.928Z,0.70
2019-02-27T10:43:05.374Z,0.60
2019-02-27T10:45:33.816Z,0.50
2019-02-27T10:48:02.295Z,0.70
2019-02-27T10:50:30.819Z,0.90
2019-02-27T10:52:59.299Z,0.85
2019-02-27T10:55:27.751Z,0.67
2019-02-27T10:57:56.259Z,0.70
2019-02-27T11:00:32.337Z,0.53
2019-02-27T11:03:01.636Z,0.60
2019-02-27T11:05:32.118Z,0.50
2019-02-27T11:08:00.671Z,0.60
2019-02-27T11:10:29.114Z,0.80
2019-02-27T11:12:57.749Z,0.60
2019-02-27T11:15:26.964Z,0.60
2019-02-27T11:17:55.532Z,0.73
2019-02-27T11:20:24.785Z,0.70
2019-02-27T11:22:53.337Z,0.60
2019-02-27T11:25:26.968Z,0.63
2019-02-27T11:27:55.431Z,0.53
2019-02-27T11:30:36.898Z,0.80
2019-02-27T11:33:05.764Z,0.70
2019-02-27T11:35:34.269Z,0.80
2019-02-27T11:38:02.719Z,0.90
2019-02-27T11:40:31.309Z,0.70
2019-02-27T11:43:01.116Z,0.80
2019-02-27T11:45:29.824Z,1.00
2019-02-27T11:47:58.438Z,0.73
2019-02-27T11:50:26.970Z,0.90
2019-02-27T11:52:55.493Z,0.90
2019-02-27T11:55:24.564Z,0.80
2019-02-27T11:57:53.245Z,0.77
2019-02-27T12:00:30.557Z,0.70
2019-02-27T12:02:59.355Z,0.80
2019-02-27T12:05:33.895Z,0.60
2019-02-27T12:07:58.743Z,0.80
2019-02-27T12:10:29.805Z,0.90
2019-02-27T12:13:00.696Z,0.80
2019-02-27T12:15:28.704Z,0.63
2019-02-27T12:18:00.301Z,0.90
2019-02-27T12:20:27.465Z,0.70
2019-02-27T12:22:55.952Z,0.90
2019-02-27T12:25:27.836Z,0.80
2019-02-27T12:27:56.129Z,0.87
2019-02-27T12:30:28.930Z,0.90
2019-02-27T12:32:57.714Z,0.57
2019-02-27T12:35:33.920Z,1.00
2019-02-27T12:38:06.833Z,0.60
2019-02-27T12:40:32.745Z,0.90
2019-02-27T12:43:02.856Z,0.83
2019-02-27T12:45:31.708Z,0.70
2019-02-27T12:48:00.239Z,0.80
2019-02-27T12:50:31.009Z,0.80
2019-02-27T12:52:59.800Z,0.80
2019-02-27T12:55:28.422Z,0.93
2019-02-27T12:57:56.895Z,0.90
2019-02-27T13:00:30.347Z,0.70
2019-02-27T13:02:59.278Z,1.10
2019-02-27T13:05:28.410Z,0.70
2019-02-27T13:07:58.149Z,1.20
2019-02-27T13:10:27.304Z,0.90
2019-02-27T13:12:55.912Z,1.13
2019-02-27T13:15:25.912Z,1.00
2019-02-27T13:17:57.698Z,1.13
2019-02-27T13:20:27.695Z,1.20
2019-02-27T13:22:56.244Z,0.90
2019-02-27T13:25:24.924Z,1.60
2019-02-27T13:27:53.494Z,1.00
2019-02-27T13:30:26.917Z,1.20
2019-02-27T13:33:00.531Z,1.10
2019-02-27T13:35:25.707Z,1.40
2019-02-27T13:37:54.261Z,0.97
2019-02-27T13:40:25.116Z,1.30
2019-02-27T13:42:53.756Z,1.10
2019-02-27T13:45:24.990Z,1.60
2019-02-27T13:47:53.557Z,1.03
2019-02-27T13:50:24.435Z,0.93
2019-02-27T13:52:52.322Z,0.90
2019-02-27T13:55:22.497Z,1.30
2019-02-27T13:57:51.044Z,1.00
2019-02-27T14:00:21.985Z,0.93
2019-02-27T14:02:50.501Z,1.00
2019-02-27T14:05:19.119Z,0.80
2019-02-27T14:07:47.573Z,0.80
2019-02-27T14:10:20.521Z,1.10
2019-02-27T14:12:48.264Z,1.00
2019-02-27T14:15:18.732Z,1.20
2019-02-27T14:17:47.186Z,1.00
2019-02-27T14:20:18.261Z,1.20
2019-02-27T14:22:46.720Z,1.50
2019-02-27T14:25:18.255Z,0.90
2019-02-27T14:27:47.448Z,0.90
2019-02-27T14:30:21.692Z,1.30
2019-02-27T14:32:50.155Z,1.10
2019-02-27T14:35:18.822Z,0.93
2019-02-27T14:37:50.022Z,0.90
2019-02-27T14:40:20.739Z,1.20
2019-02-27T14:42:53.926Z,1.37
2019-02-27T14:45:21.393Z,1.30
2019-02-27T14:47:49.858Z,1.00
2019-02-27T14:50:20.818Z,0.90
2019-02-27T14:52:49.989Z,0.90
2019-02-27T14:55:19.107Z,1.63
2019-02-27T14:57:51.059Z,0.97
2019-02-27T15:00:29.461Z,1.20
2019-02-27T15:02:58.159Z,1.50
2019-02-27T15:05:26.800Z,1.23
2019-02-27T15:07:55.326Z,1.20
2019-02-27T15:10:24.632Z,1.43
2019-02-27T15:12:54.972Z,1.20
2019-02-27T15:15:28.148Z,1.40
2019-02-27T15:17:57.041Z,1.27
2019-02-27T15:20:30.018Z,0.97
2019-02-27T15:22:58.536Z,1.20
2019-02-27T15:25:27.841Z,1.33
2019-02-27T15:27:58.858Z,1.30
2019-02-27T15:30:31.365Z,1.35
2019-02-27T15:33:03.735Z,1.33
2019-02-27T15:35:30.151Z,1.40
2019-02-27T15:37:58.742Z,1.40
2019-02-27T15:40:30.153Z,2.27
2019-02-27T15:42:58.705Z,1.40
2019-02-27T15:45:28.113Z,2.02
2019-02-27T15:47:56.709Z,1.40
2019-02-27T15:50:26.983Z,1.70
2019-02-27T15:52:55.421Z,1.43
2019-02-27T15:55:23.932Z,1.50
2019-02-27T15:57:53.759Z,1.40
2019-02-27T16:00:24.678Z,1.30
2019-02-27T16:02:53.265Z,1.73
2019-02-27T16:05:21.938Z,1.70
2019-02-27T16:07:50.471Z,2.20
2019-02-27T16:10:22.859Z,2.10
2019-02-27T16:12:51.455Z,1.90
2019-02-27T16:15:21.455Z,1.87
2019-02-27T16:17:50.015Z,2.27
2019-02-27T16:20:20.577Z,1.80
2019-02-27T16:22:49.006Z,1.13
2019-02-27T16:25:28.025Z,1.10
2019-02-27T16:27:56.465Z,2.00
2019-02-27T16:30:32.330Z,2.20
2019-02-27T16:32:59.771Z,1.47
2019-02-27T16:35:28.279Z,2.10
2019-02-27T16:37:57.880Z,2.07
2019-02-27T16:40:28.665Z,1.60
2019-02-27T16:42:57.108Z,2.47
2019-02-27T16:45:36.817Z,1.70
2019-02-27T16:48:04.306Z,1.80
2019-02-27T16:50:32.748Z,1.67
2019-02-27T16:53:01.198Z,1.70
2019-02-27T16:55:29.879Z,2.37
2019-02-27T16:57:58.407Z,3.17
2019-02-27T17:00:30.828Z,4.03
2019-02-27T17:02:59.342Z,1.80
2019-02-27T17:05:27.789Z,2.80
2019-02-27T17:08:00.668Z,3.10
2019-02-27T17:10:31.855Z,2.70
2019-02-27T17:13:00.359Z,3.57
2019-02-27T17:15:34.718Z,3.80
2019-02-27T17:17:59.138Z,4.30
2019-02-27T17:20:28.162Z,4.67
2019-02-27T17:22:56.753Z,4.30
2019-02-27T17:25:29.085Z,3.77
2019-02-27T17:27:55.429Z,3.03
2019-02-27T17:30:25.930Z,3.47
2019-02-27T17:32:54.358Z,1.47
2019-02-27T17:35:23.656Z,2.07
2019-02-27T17:37:52.789Z,2.07
2019-02-27T17:40:21.229Z,2.30
2019-02-27T17:42:53.206Z,2.20
2019-02-27T17:45:26.871Z,3.17
2019-02-27T17:47:55.329Z,2.43
2019-02-27T17:50:23.900Z,4.23
2019-02-27T17:52:52.514Z,2.20
2019-02-27T17:55:21.176Z,5.07
2019-02-27T17:57:49.645Z,3.00
2019-02-27T18:00:28.549Z,2.50
2019-02-27T18:02:57.155Z,3.37
2019-02-27T18:05:26.189Z,3.75
2019-02-27T18:07:54.771Z,4.57
2019-02-27T18:10:23.253Z,3.10
2019-02-27T18:12:51.815Z,3.00
2019-02-27T18:15:21.720Z,2.80
2019-02-27T18:17:50.231Z,5.53
2019-02-27T18:20:24.404Z,18.27
2019-02-27T18:22:50.227Z,4.80
2019-02-27T18:25:19.045Z,7.60
2019-02-27T18:27:47.984Z,3.53
2019-02-27T18:30:21.613Z,2.60
2019-02-27T18:32:50.114Z,2.47
2019-02-27T18:35:19.281Z,2.57
2019-02-27T18:37:53.279Z,2.30
2019-02-27T18:40:19.161Z,3.13
2019-02-27T18:42:47.676Z,2.30
2019-02-27T18:45:18.525Z,2.80
2019-02-27T18:47:46.963Z,2.60
2019-02-27T18:50:16.060Z,2.23
2019-02-27T18:52:44.570Z,1.90
2019-02-27T18:55:14.282Z,2.67
2019-02-27T18:57:46.020Z,3.60
2019-02-27T19:00:19.585Z,3.97
2019-02-27T19:02:48.266Z,2.87
2019-02-27T19:05:16.706Z,3.20
2019-02-27T19:07:45.141Z,2.30
2019-02-27T19:10:15.553Z,2.43
2019-02-27T19:12:43.989Z,9.83
2019-02-27T19:15:15.790Z,4.17
2019-02-27T19:17:44.295Z,2.67
2019-02-27T19:20:15.474Z,2.60
2019-02-27T19:22:43.928Z,1.80
2019-02-27T19:25:13.929Z,1.87
2019-02-27T19:27:42.491Z,1.40
2019-02-27T19:30:18.243Z,1.13
2019-02-27T19:32:47.420Z,1.60
2019-02-27T19:35:21.161Z,1.73
2019-02-27T19:37:46.942Z,1.87
2019-02-27T19:40:17.810Z,1.13
2019-02-27T19:42:57.250Z,1.67
2019-02-27T19:45:25.933Z,2.13
2019-02-27T19:47:55.769Z,1.50
2019-02-27T19:50:24.606Z,1.50
2019-02-27T19:52:53.057Z,1.80
2019-02-27T19:55:26.544Z,1.43
2019-02-27T19:57:51.810Z,2.00
2019-02-27T20:00:35.212Z,2.23
2019-02-27T20:03:03.965Z,2.20
2019-02-27T20:05:32.467Z,3.90
2019-02-27T20:08:02.466Z,2.20
2019-02-27T20:10:33.250Z,1.90
2019-02-27T20:13:01.435Z,2.00
2019-02-27T20:15:29.962Z,1.90
2019-02-27T20:17:58.526Z,1.77
2019-02-27T20:20:27.238Z,1.57
2019-02-27T20:22:56.154Z,2.20
2019-02-27T20:25:27.566Z,1.83
2019-02-27T20:27:57.872Z,2.03
2019-02-27T20:30:26.509Z,2.23
2019-02-27T20:32:55.038Z,1.90
2019-02-27T20:35:23.811Z,2.90
2019-02-27T20:37:52.437Z,2.20
2019-02-27T20:40:21.281Z,2.10
2019-02-27T20:42:52.051Z,2.03
2019-02-27T20:45:26.523Z,1.83
2019-02-27T20:47:57.836Z,2.10
2019-02-27T20:50:39.285Z,1.77
2019-02-27T20:53:09.452Z,2.13
2019-02-27T20:55:37.919Z,2.10
2019-02-27T20:58:06.441Z,1.90
2019-02-27T21:00:36.611Z,2.40
2019-02-27T21:03:05.383Z,2.27
2019-02-27T21:05:34.524Z,2.70
2019-02-27T21:08:03.051Z,2.73
2019-02-27T21:10:33.519Z,2.67
2019-02-27T21:13:02.046Z,2.87
2019-02-27T21:15:32.487Z,2.33
2019-02-27T21:18:00.674Z,1.87
2019-02-27T21:20:29.167Z,1.40
2019-02-27T21:23:00.045Z,2.33
2019-02-27T21:25:27.762Z,2.13
2019-02-27T21:27:56.287Z,1.93
2019-02-27T21:30:25.570Z,2.17
2019-02-27T21:32:54.123Z,2.87
2019-02-27T21:35:22.774Z,2.90
2019-02-27T21:37:51.316Z,2.40
2019-02-27T21:40:20.294Z,3.10
2019-02-27T21:42:50.897Z,2.40
2019-02-27T21:45:23.765Z,2.40
2019-02-27T21:47:52.905Z,1.90
2019-02-27T21:50:26.000Z,2.37
2019-02-27T21:52:55.591Z,2.90
2019-02-27T21:55:24.488Z,1.77
2019-02-27T21:57:53.031Z,1.97
2019-02-27T22:00:26.461Z,1.83
2019-02-27T22:02:56.021Z,2.00
2019-02-27T22:05:24.529Z,2.07
2019-02-27T22:07:52.961Z,2.23
2019-02-27T22:10:22.357Z,2.07
2019-02-27T22:12:50.807Z,2.07
2019-02-27T22:15:23.149Z,1.90
2019-02-27T22:17:51.787Z,2.20
2019-02-27T22:20:21.151Z,1.53
2019-02-27T22:22:49.587Z,1.83
2019-02-27T22:25:18.058Z,1.97
2019-02-27T22:27:46.729Z,2.40
2019-02-27T22:30:17.838Z,2.20
2019-02-27T22:32:48.134Z,2.80
2019-02-27T22:35:16.502Z,2.27
2019-02-27T22:37:44.942Z,2.72
2019-02-27T22:40:16.008Z,2.43
2019-02-27T22:42:45.435Z,2.33
2019-02-27T22:45:17.164Z,2.50
2019-02-27T22:47:45.665Z,3.00
2019-02-27T22:50:16.173Z,3.50
2019-02-27T22:52:44.773Z,2.40
2019-02-27T22:55:13.381Z,2.40
2019-02-27T22:57:41.825Z,3.27
2019-02-27T23:00:23.971Z,2.47
2019-02-27T23:02:53.459Z,3.63
2019-02-27T23:05:22.034Z,3.97
2019-02-27T23:07:51.667Z,3.40
2019-02-27T23:10:20.874Z,3.10
2019-02-27T23:12:49.332Z,3.50
2019-02-27T23:15:17.790Z,2.80
2019-02-27T23:17:46.226Z,3.83
2019-02-27T23:20:17.459Z,4.00
2019-02-27T23:22:44.917Z,3.40
2019-02-27T23:25:15.636Z,4.50
2019-02-27T23:27:43.529Z,3.67
2019-02-27T23:30:15.869Z,3.50
2019-02-27T23:32:42.499Z,3.87
2019-02-27T23:35:15.856Z,4.33
2019-02-27T23:37:41.143Z,4.10
2019-02-27T23:40:09.793Z,3.10
2019-02-27T23:42:38.263Z,4.27
2019-02-27T23:45:10.276Z,4.30
2019-02-27T23:47:39.093Z,3.83
2019-02-27T23:50:11.010Z,4.60
2019-02-27T23:52:40.449Z,5.00
2019-02-27T23:55:09.946Z,4.60
2019-02-27T23:57:39.268Z,4.37
